createdAt,value
2018-05-21T00:02:12.739Z,19.80
2018-05-21T00:04:40.508Z,20.90
2018-05-21T00:07:08.256Z,20.10
2018-05-21T00:09:35.996Z,21.37
2018-05-21T00:12:03.737Z,22.30
2018-05-21T00:14:32.222Z,22.10
2018-05-21T00:17:00.729Z,22.20
2018-05-21T00:19:28.448Z,21.53
2018-05-21T00:21:56.197Z,20.73
2018-05-21T00:24:23.928Z,21.57
2018-05-21T00:26:51.690Z,19.50
2018-05-21T00:29:19.408Z,19.60
2018-05-21T00:31:47.156Z,21.63
2018-05-21T00:34:14.937Z,19.47
2018-05-21T00:36:42.756Z,19.27
2018-05-21T00:39:10.486Z,18.80
2018-05-21T00:41:39.044Z,21.10
2018-05-21T00:44:06.792Z,21.67
2018-05-21T00:46:34.558Z,21.33
2018-05-21T00:49:02.285Z,21.20
2018-05-21T00:51:30.009Z,21.23
2018-05-21T00:53:58.503Z,23.27
2018-05-21T00:56:26.998Z,25.73
2018-05-21T00:58:54.773Z,23.47
2018-05-21T01:01:23.265Z,26.23
2018-05-21T01:03:50.992Z,26.13
2018-05-21T01:06:19.532Z,25.73
2018-05-21T01:08:47.300Z,25.90
2018-05-21T01:11:15.104Z,26.47
2018-05-21T01:13:43.649Z,27.50
2018-05-21T01:16:11.370Z,25.87
2018-05-21T01:18:39.087Z,28.53
2018-05-21T01:21:06.841Z,28.93
2018-05-21T01:23:34.612Z,28.93
2018-05-21T01:26:02.357Z,28.47
2018-05-21T01:28:30.140Z,29.07
2018-05-21T01:30:57.896Z,29.60
2018-05-21T01:33:26.080Z,31.73
2018-05-21T01:35:53.833Z,28.13
2018-05-21T01:38:21.600Z,27.00
2018-05-21T01:40:49.321Z,28.40
2018-05-21T01:43:17.045Z,27.40
2018-05-21T01:45:45.607Z,28.27
2018-05-21T01:48:13.338Z,26.93
2018-05-21T01:50:41.084Z,26.23
2018-05-21T01:53:08.805Z,27.87
2018-05-21T01:55:36.537Z,26.23
2018-05-21T01:58:04.384Z,27.00
2018-05-21T02:00:32.104Z,26.47
2018-05-21T02:03:00.598Z,26.80
2018-05-21T02:05:29.095Z,28.43
2018-05-21T02:07:57.619Z,26.33
2018-05-21T02:10:25.411Z,25.90
2018-05-21T02:12:53.934Z,28.80
2018-05-21T02:15:21.682Z,26.80
2018-05-21T02:17:49.416Z,26.67
2018-05-21T02:20:17.947Z,27.60
2018-05-21T02:22:45.780Z,26.87
2018-05-21T02:25:14.313Z,25.87
2018-05-21T02:27:42.052Z,28.80
2018-05-21T02:30:09.838Z,27.80
2018-05-21T02:32:37.583Z,27.63
2018-05-21T02:35:05.400Z,27.97
2018-05-21T02:37:33.120Z,27.90
2018-05-21T02:40:00.882Z,29.27
2018-05-21T02:42:28.608Z,26.50
2018-05-21T02:44:57.104Z,28.90
2018-05-21T02:47:24.853Z,28.47
2018-05-21T02:49:53.351Z,29.40
2018-05-21T02:52:21.072Z,26.53
2018-05-21T02:54:48.824Z,27.07
2018-05-21T02:57:17.327Z,27.40
2018-05-21T02:59:45.108Z,28.90
2018-05-21T03:02:13.624Z,27.00
2018-05-21T03:04:41.368Z,29.00
2018-05-21T03:07:09.104Z,27.80
2018-05-21T03:09:37.592Z,29.27
2018-05-21T03:12:06.165Z,26.30
2018-05-21T03:14:34.683Z,25.20
2018-05-21T03:17:02.429Z,27.83
2018-05-21T03:19:30.985Z,26.57
2018-05-21T03:21:58.767Z,26.00
2018-05-21T03:24:27.255Z,24.30
2018-05-21T03:26:55.803Z,26.57
2018-05-21T03:29:23.533Z,25.10
2018-05-21T03:31:51.272Z,24.80
2018-05-21T03:34:18.997Z,26.77
2018-05-21T03:36:46.729Z,24.63
2018-05-21T03:39:14.476Z,24.67
2018-05-21T03:41:42.219Z,23.43
2018-05-21T03:44:10.710Z,25.17
2018-05-21T03:46:38.437Z,22.37
2018-05-21T03:49:06.196Z,19.87
2018-05-21T03:51:33.931Z,19.83
2018-05-21T03:54:01.656Z,22.20
2018-05-21T03:56:29.380Z,21.10
2018-05-21T03:59:08.799Z,21.03
2018-05-21T04:04:33.754Z,19.70
2018-05-21T04:07:02.269Z,20.03
2018-05-21T04:09:30.009Z,21.43
2018-05-21T04:11:58.557Z,20.40
2018-05-21T04:14:26.367Z,20.20
2018-05-21T04:16:54.273Z,20.30
2018-05-21T04:19:22.012Z,20.03
2018-05-21T04:21:49.745Z,20.97
2018-05-21T04:24:18.245Z,21.80
2018-05-21T04:26:45.992Z,22.30
2018-05-21T04:29:14.505Z,23.07
2018-05-21T04:31:42.223Z,23.87
2018-05-21T04:34:10.737Z,24.13
2018-05-21T04:36:38.480Z,23.20
2018-05-21T04:39:07.022Z,24.33
2018-05-21T04:41:34.864Z,23.27
2018-05-21T04:44:02.593Z,24.30
2018-05-21T04:46:31.091Z,26.83
2018-05-21T04:48:58.856Z,28.50
2018-05-21T04:51:26.688Z,28.13
2018-05-21T04:53:54.501Z,25.30
2018-05-21T04:56:22.248Z,24.67
2018-05-21T04:58:49.978Z,25.53
2018-05-21T05:01:17.692Z,24.13
2018-05-21T05:03:45.501Z,24.53
2018-05-21T05:06:13.233Z,25.70
2018-05-21T05:08:40.965Z,27.00
2018-05-21T05:11:08.691Z,24.70
2018-05-21T05:13:36.433Z,26.00
2018-05-21T05:16:04.291Z,24.83
2018-05-21T05:18:32.020Z,24.87
2018-05-21T05:20:59.765Z,25.77
2018-05-21T05:23:28.269Z,24.63
2018-05-21T05:25:56.022Z,25.50
2018-05-21T05:28:24.678Z,25.77
2018-05-21T05:30:52.393Z,25.57
2018-05-21T05:33:20.121Z,24.33
2018-05-21T05:35:48.621Z,25.00
2018-05-21T05:38:16.401Z,26.50
2018-05-21T05:40:44.173Z,25.33
2018-05-21T05:43:11.918Z,24.97
2018-05-21T05:45:39.672Z,25.60
2018-05-21T05:48:08.173Z,24.20
2018-05-21T05:50:35.905Z,22.80
2018-05-21T05:53:04.498Z,23.07
2018-05-21T05:55:33.001Z,21.97
2018-05-21T05:58:00.836Z,23.10
2018-05-21T06:00:29.328Z,25.37
2018-05-21T06:02:57.858Z,26.60
2018-05-21T06:05:26.453Z,25.70
2018-05-21T06:07:54.256Z,23.60
2018-05-21T06:10:22.748Z,21.57
2018-05-21T06:12:50.521Z,22.47
2018-05-21T06:15:18.267Z,21.60
2018-05-21T06:17:46.012Z,19.57
2018-05-21T06:20:14.577Z,20.93
2018-05-21T06:22:42.308Z,19.63
2018-05-21T06:25:10.102Z,20.93
2018-05-21T06:27:37.819Z,21.70
2018-05-21T06:30:05.576Z,22.70
2018-05-21T06:32:33.417Z,25.73
2018-05-21T06:35:01.939Z,21.63
2018-05-21T06:37:29.683Z,23.77
2018-05-21T06:39:57.416Z,28.07
2018-05-21T06:42:25.181Z,26.90
2018-05-21T06:44:52.909Z,28.17
2018-05-21T06:47:20.641Z,28.07
2018-05-21T06:49:48.526Z,27.10
2018-05-21T06:52:16.269Z,28.33
2018-05-21T06:54:44.099Z,27.33
2018-05-21T06:57:11.825Z,32.27
2018-05-21T06:59:39.566Z,30.83
2018-05-21T07:02:07.312Z,31.00
2018-05-21T07:04:35.860Z,29.47
2018-05-21T07:07:03.713Z,30.00
2018-05-21T07:09:31.448Z,31.07
2018-05-21T07:11:59.177Z,30.50
2018-05-21T07:14:27.687Z,31.30
2018-05-21T07:16:55.471Z,30.73
2018-05-21T07:19:23.188Z,30.93
2018-05-21T07:21:51.688Z,27.40
2018-05-21T07:24:19.471Z,30.17
2018-05-21T07:26:47.213Z,27.20
2018-05-21T07:29:14.945Z,26.00
2018-05-21T07:31:42.685Z,25.20
2018-05-21T07:34:10.410Z,20.97
2018-05-21T07:36:38.185Z,24.17
2018-05-21T07:39:06.012Z,25.17
2018-05-21T07:41:34.653Z,25.27
2018-05-21T07:44:02.399Z,26.23
2018-05-21T07:46:30.895Z,25.17
2018-05-21T07:48:58.641Z,25.63
2018-05-21T07:51:26.542Z,24.13
2018-05-21T07:53:54.252Z,24.70
2018-05-21T07:56:22.777Z,24.50
2018-05-21T07:58:50.513Z,28.53
2018-05-21T08:01:18.316Z,26.67
2018-05-21T08:03:46.049Z,25.63
2018-05-21T08:06:13.846Z,26.70
2018-05-21T08:08:41.565Z,27.10
2018-05-21T08:11:09.293Z,24.60
2018-05-21T08:13:37.788Z,24.23
2018-05-21T08:16:06.300Z,25.93
2018-05-21T08:18:34.040Z,25.37
2018-05-21T08:21:01.796Z,24.90
2018-05-21T08:23:30.311Z,27.47
2018-05-21T08:25:58.052Z,27.23
2018-05-21T08:28:26.566Z,30.80
2018-05-21T08:30:54.436Z,28.87
2018-05-21T08:33:22.161Z,27.50
2018-05-21T08:35:49.908Z,28.60
2018-05-21T08:38:18.421Z,27.90
2018-05-21T08:40:46.212Z,27.50
2018-05-21T08:43:13.979Z,28.13
2018-05-21T08:45:41.760Z,28.70
2018-05-21T08:48:09.517Z,29.00
2018-05-21T08:50:37.245Z,30.37
2018-05-21T08:53:05.084Z,30.03
2018-05-21T08:55:33.585Z,29.40
2018-05-21T08:58:01.349Z,27.87
2018-05-21T09:00:29.177Z,27.60
2018-05-21T09:02:57.696Z,26.50
2018-05-21T09:05:25.516Z,25.63
2018-05-21T09:07:53.314Z,23.20
2018-05-21T09:10:21.048Z,23.27
2018-05-21T09:12:48.793Z,24.07
2018-05-21T09:15:16.528Z,28.37
2018-05-21T09:17:44.293Z,22.03
2018-05-21T09:20:12.077Z,24.70
2018-05-21T09:22:39.928Z,23.57
2018-05-21T09:25:07.883Z,22.57
2018-05-21T09:27:35.619Z,21.60
2018-05-21T09:30:04.252Z,23.67
2018-05-21T09:32:31.997Z,22.73
2018-05-21T09:34:59.736Z,24.07
2018-05-21T09:37:28.285Z,24.90
2018-05-21T09:39:56.027Z,23.40
2018-05-21T09:42:23.770Z,26.03
2018-05-21T09:44:51.493Z,26.27
2018-05-21T09:47:20.005Z,23.90
2018-05-21T09:49:47.768Z,29.57
2018-05-21T09:52:15.509Z,24.30
2018-05-21T09:54:44.038Z,23.60
2018-05-21T09:57:11.802Z,21.70
2018-05-21T09:59:39.536Z,25.20
2018-05-21T10:02:07.264Z,22.83
2018-05-21T10:04:35.037Z,24.90
2018-05-21T10:07:03.612Z,22.87
2018-05-21T10:09:31.393Z,22.30
2018-05-21T10:12:00.139Z,21.70
2018-05-21T10:14:27.901Z,23.20
2018-05-21T10:16:55.640Z,25.67
2018-05-21T10:19:23.458Z,21.57
2018-05-21T10:21:51.203Z,23.93
2018-05-21T10:24:18.935Z,20.33
2018-05-21T10:26:47.285Z,20.57
2018-05-21T10:29:15.786Z,19.23
2018-05-21T10:31:43.551Z,19.90
2018-05-21T10:34:11.273Z,20.70
2018-05-21T10:36:39.776Z,22.20
2018-05-21T10:39:07.515Z,23.10
2018-05-21T10:41:35.242Z,22.87
2018-05-21T10:44:03.012Z,20.73
2018-05-21T10:46:30.786Z,20.63
2018-05-21T10:48:58.537Z,22.50
2018-05-21T10:51:26.345Z,19.00
2018-05-21T10:53:54.116Z,17.23
2018-05-21T10:56:22.701Z,18.57
2018-05-21T10:58:51.185Z,17.53
2018-05-21T11:01:18.920Z,18.70
2018-05-21T11:03:46.668Z,20.27
2018-05-21T11:06:14.427Z,19.90
2018-05-21T11:08:42.148Z,17.57
2018-05-21T11:11:09.876Z,21.00
2018-05-21T11:13:37.617Z,18.83
2018-05-21T11:16:05.379Z,19.30
2018-05-21T11:18:33.179Z,20.13
2018-05-21T11:21:01.702Z,18.00
2018-05-21T11:23:29.430Z,20.40
2018-05-21T11:25:57.939Z,18.13
2018-05-21T11:28:26.851Z,22.57
2018-05-21T11:30:54.627Z,20.73
2018-05-21T11:33:22.356Z,21.50
2018-05-21T11:35:50.088Z,24.47
2018-05-21T11:38:18.585Z,22.50
2018-05-21T11:40:47.076Z,28.07
2018-05-21T11:43:14.879Z,20.90
2018-05-21T11:45:42.661Z,58.47
2018-05-21T11:48:10.445Z,19.90
2018-05-21T11:50:38.303Z,24.60
2018-05-21T11:53:05.985Z,21.20
2018-05-21T11:55:34.503Z,20.60
2018-05-21T11:58:02.245Z,26.60
2018-05-21T12:00:29.960Z,25.70
2018-05-21T12:02:57.707Z,20.90
2018-05-21T12:05:25.439Z,18.97
2018-05-21T12:07:53.169Z,19.63
2018-05-21T12:10:21.674Z,27.53
2018-05-21T12:12:49.437Z,24.83
2018-05-21T12:15:17.164Z,27.80
2018-05-21T12:17:44.924Z,22.43
2018-05-21T12:20:12.692Z,26.10
2018-05-21T12:22:40.468Z,23.80
2018-05-21T12:25:08.989Z,29.27
2018-05-21T12:27:36.722Z,25.80
2018-05-21T12:30:05.263Z,27.97
2018-05-21T12:32:33.021Z,28.07
2018-05-21T12:35:01.513Z,25.07
2018-05-21T12:37:29.251Z,25.03
2018-05-21T12:39:56.989Z,22.83
2018-05-21T12:42:24.745Z,21.23
2018-05-21T12:44:53.282Z,19.97
2018-05-21T12:47:21.004Z,18.13
2018-05-21T12:49:48.745Z,23.37
2018-05-21T12:52:17.238Z,21.60
2018-05-21T12:54:45.762Z,20.00
2018-05-21T12:57:13.533Z,24.00
2018-05-21T12:59:41.283Z,21.47
2018-05-21T13:02:09.016Z,25.37
2018-05-21T13:04:36.768Z,17.50
2018-05-21T13:07:05.360Z,22.83
2018-05-21T13:09:33.096Z,23.70
2018-05-21T13:12:00.836Z,24.30
2018-05-21T13:14:28.562Z,23.67
2018-05-21T13:16:56.292Z,21.43
2018-05-21T13:19:24.820Z,22.27
2018-05-21T13:21:52.598Z,17.67
2018-05-21T13:24:20.376Z,19.43
2018-05-21T13:26:48.136Z,21.57
2018-05-21T13:29:15.923Z,20.00
2018-05-21T13:31:43.708Z,18.67
2018-05-21T13:34:12.285Z,18.60
2018-05-21T13:36:40.815Z,20.80
2018-05-21T13:39:08.580Z,19.37
2018-05-21T13:41:36.328Z,20.60
2018-05-21T13:44:04.096Z,19.93
2018-05-21T13:46:31.909Z,19.47
2018-05-21T13:48:59.677Z,19.40
2018-05-21T13:51:28.176Z,19.67
2018-05-21T13:53:56.717Z,18.33
2018-05-21T13:56:24.488Z,16.43
2018-05-21T13:58:52.291Z,21.10
2018-05-21T14:01:19.981Z,17.80
2018-05-21T14:03:47.742Z,19.57
2018-05-21T14:06:15.475Z,18.00
2018-05-21T14:08:43.991Z,21.27
2018-05-21T14:11:11.815Z,19.53
2018-05-21T14:13:40.332Z,18.17
2018-05-21T14:16:08.089Z,17.80
2018-05-21T14:18:35.834Z,19.10
2018-05-21T14:21:04.340Z,20.40
2018-05-21T14:23:32.067Z,19.33
2018-05-21T14:26:00.592Z,13.70
2018-05-21T14:28:28.337Z,19.20
2018-05-21T14:30:56.062Z,18.63
2018-05-21T14:33:24.586Z,15.10
2018-05-21T14:35:52.321Z,15.70
2018-05-21T14:38:20.143Z,15.57
2018-05-21T14:40:47.871Z,16.37
2018-05-21T14:43:15.629Z,18.67
2018-05-21T14:45:43.388Z,20.27
2018-05-21T14:48:11.906Z,20.07
2018-05-21T14:50:39.680Z,21.10
2018-05-21T14:53:07.404Z,16.63
2018-05-21T14:55:35.164Z,19.30
2018-05-21T14:58:03.701Z,15.00
2018-05-21T15:00:31.493Z,18.53
2018-05-21T15:02:59.279Z,18.23
2018-05-21T15:05:27.025Z,19.50
2018-05-21T15:07:55.518Z,19.90
2018-05-21T15:10:23.357Z,19.00
2018-05-21T15:12:51.108Z,22.17
2018-05-21T15:15:18.856Z,21.03
2018-05-21T15:17:46.596Z,22.07
2018-05-21T15:20:14.364Z,19.37
2018-05-21T15:22:42.095Z,20.20
2018-05-21T15:25:10.629Z,20.50
2018-05-21T15:27:38.380Z,19.43
2018-05-21T15:30:06.168Z,22.57
2018-05-21T15:32:34.000Z,20.63
2018-05-21T15:35:01.725Z,19.43
2018-05-21T15:37:30.283Z,20.00
2018-05-21T15:39:58.060Z,20.60
2018-05-21T15:42:25.840Z,23.10
2018-05-21T15:44:54.414Z,22.17
2018-05-21T15:47:22.964Z,19.93
2018-05-21T15:49:50.779Z,19.97
2018-05-21T15:52:19.277Z,19.03
2018-05-21T15:54:47.032Z,21.43
2018-05-21T15:57:14.768Z,19.10
2018-05-21T15:59:43.308Z,20.43
2018-05-21T16:02:11.045Z,20.33
2018-05-21T16:04:38.808Z,21.03
2018-05-21T16:07:06.620Z,20.40
2018-05-21T16:09:34.379Z,16.43
2018-05-21T16:12:02.174Z,19.70
2018-05-21T16:14:30.682Z,18.40
2018-05-21T16:16:58.427Z,18.47
2018-05-21T16:19:26.924Z,18.47
2018-05-21T16:21:54.657Z,19.97
2018-05-21T16:24:22.498Z,18.60
2018-05-21T16:26:50.232Z,16.63
2018-05-21T16:29:17.993Z,16.10
2018-05-21T16:31:45.712Z,16.87
2018-05-21T16:34:14.246Z,16.10
2018-05-21T16:36:41.998Z,18.13
2018-05-21T16:39:09.741Z,16.53
2018-05-21T16:41:38.834Z,16.90
2018-05-21T16:44:07.361Z,16.40
2018-05-21T16:46:35.128Z,16.70
2018-05-21T16:49:02.897Z,17.83
2018-05-21T16:51:30.692Z,16.93
2018-05-21T16:53:58.513Z,16.13
2018-05-21T16:56:26.972Z,17.50
2018-05-21T16:58:55.504Z,17.97
2018-05-21T17:01:23.312Z,16.83
2018-05-21T17:03:51.080Z,17.80
2018-05-21T17:06:18.817Z,17.60
2018-05-21T17:08:47.333Z,17.90
2018-05-21T17:11:15.060Z,16.30
2018-05-21T17:13:43.619Z,13.97
2018-05-21T17:16:11.354Z,13.80
2018-05-21T17:18:39.097Z,14.33
2018-05-21T17:21:06.848Z,16.20
2018-05-21T17:23:35.351Z,14.33
2018-05-21T17:26:03.171Z,14.80
2018-05-21T17:28:30.924Z,15.10
2018-05-21T17:30:58.720Z,14.30
2018-05-21T17:33:27.232Z,14.83
2018-05-21T17:35:54.965Z,14.03
2018-05-21T17:38:23.480Z,14.23
2018-05-21T17:40:51.292Z,14.73
2018-05-21T17:43:19.812Z,15.10
2018-05-21T17:45:47.545Z,15.50
2018-05-21T17:48:16.040Z,14.43
2018-05-21T17:50:44.548Z,14.97
2018-05-21T17:53:12.325Z,14.93
2018-05-21T17:55:40.060Z,19.63
2018-05-21T17:58:07.787Z,21.20
2018-05-21T18:00:36.316Z,25.13
2018-05-21T18:03:04.206Z,22.80
2018-05-21T18:05:31.909Z,22.07
2018-05-21T18:07:59.663Z,17.90
2018-05-21T18:10:27.423Z,17.40
2018-05-21T18:12:55.497Z,14.20
2018-05-21T18:15:23.288Z,17.10
2018-05-21T18:17:51.785Z,17.60
2018-05-21T18:20:19.595Z,18.30
2018-05-21T18:22:47.332Z,14.90
2018-05-21T18:25:15.085Z,17.47
2018-05-21T18:27:42.828Z,17.30
2018-05-21T18:30:10.642Z,15.50
2018-05-21T18:32:38.372Z,16.43
2018-05-21T18:35:06.122Z,16.37
2018-05-21T18:37:33.909Z,17.13
2018-05-21T18:40:01.649Z,19.03
2018-05-21T18:42:29.412Z,15.60
2018-05-21T18:44:57.172Z,15.90
2018-05-21T18:47:25.677Z,16.20
2018-05-21T18:49:53.449Z,16.47
2018-05-21T18:52:21.964Z,16.37
2018-05-21T18:54:49.700Z,14.07
2018-05-21T18:57:17.473Z,15.70
2018-05-21T18:59:45.212Z,15.37
2018-05-21T19:02:12.963Z,15.37
2018-05-21T19:04:40.707Z,14.97
2018-05-21T19:07:09.188Z,15.40
2018-05-21T19:09:37.747Z,15.57
2018-05-21T19:12:05.481Z,16.03
2018-05-21T19:14:33.241Z,16.00
2018-05-21T19:17:00.961Z,15.07
2018-05-21T19:19:29.535Z,16.77
2018-05-21T19:21:58.030Z,15.10
2018-05-21T19:24:25.779Z,17.50
2018-05-21T19:26:53.664Z,18.87
2018-05-21T19:29:22.205Z,18.70
2018-05-21T19:31:49.924Z,18.17
2018-05-21T19:34:17.676Z,18.10
2018-05-21T19:36:46.184Z,15.90
2018-05-21T19:39:13.928Z,15.13
2018-05-21T19:41:41.685Z,16.23
2018-05-21T19:44:09.445Z,17.80
2018-05-21T19:46:38.045Z,17.00
2018-05-21T19:49:05.803Z,17.13
2018-05-21T19:51:33.576Z,17.70
2018-05-21T19:54:01.326Z,15.03
2018-05-21T19:56:29.062Z,16.07
2018-05-21T19:58:56.851Z,15.77
2018-05-21T20:01:25.384Z,16.13
2018-05-21T20:03:53.104Z,14.90
2018-05-21T20:06:20.831Z,15.13
2018-05-21T20:08:48.564Z,14.90
2018-05-21T20:11:16.293Z,12.43
2018-05-21T20:13:44.040Z,13.97
2018-05-21T20:16:12.572Z,15.10
2018-05-21T20:18:40.364Z,15.03
2018-05-21T20:21:08.094Z,16.83
2018-05-21T20:23:35.855Z,17.07
2018-05-21T20:26:03.673Z,15.87
2018-05-21T20:28:32.188Z,15.80
2018-05-21T20:30:59.909Z,16.77
2018-05-21T20:33:27.670Z,17.47
2018-05-21T20:35:55.400Z,16.37
2018-05-21T20:38:23.188Z,15.50
2018-05-21T20:40:50.935Z,16.00
2018-05-21T20:43:18.725Z,15.80
2018-05-21T20:45:46.525Z,15.40
2018-05-21T20:48:14.294Z,17.30
2018-05-21T20:50:42.159Z,15.80
2018-05-21T20:53:09.996Z,17.40
2018-05-21T20:55:38.475Z,16.07
2018-05-21T20:58:07.049Z,16.50
2018-05-21T21:00:34.857Z,16.20
2018-05-21T21:03:02.592Z,17.97
2018-05-21T21:05:32.000Z,20.00
2018-05-21T21:08:00.509Z,17.50
2018-05-21T21:10:29.095Z,18.70
2018-05-21T21:12:56.937Z,18.07
2018-05-21T21:15:25.472Z,16.90
2018-05-21T21:17:53.218Z,18.57
2018-05-21T21:20:20.953Z,19.70
2018-05-21T21:22:49.485Z,18.17
2018-05-21T21:25:17.233Z,20.10
2018-05-21T21:27:45.276Z,20.90
2018-05-21T21:30:13.018Z,18.47
2018-05-21T21:32:41.521Z,20.10
2018-05-21T21:35:09.289Z,17.30
2018-05-21T21:37:37.170Z,18.40
2018-05-21T21:40:04.944Z,17.90
2018-05-21T21:42:32.701Z,16.63
2018-05-21T21:45:00.448Z,17.33
2018-05-21T21:47:28.416Z,16.10
2018-05-21T21:49:56.152Z,15.53
2018-05-21T21:52:24.644Z,16.13
2018-05-21T21:54:53.149Z,16.27
2018-05-21T21:57:20.889Z,16.57
2018-05-21T21:59:48.643Z,17.40
2018-05-21T22:02:17.156Z,16.50
2018-05-21T22:04:44.876Z,17.20
2018-05-21T22:07:13.379Z,17.20
2018-05-21T22:09:41.134Z,15.63
2018-05-21T22:12:09.641Z,16.10
2018-05-21T22:14:37.382Z,16.90
2018-05-21T22:17:05.872Z,16.70
2018-05-21T22:19:33.617Z,16.43
2018-05-21T22:22:02.190Z,16.53
2018-05-21T22:24:29.960Z,16.03
2018-05-21T22:26:58.463Z,17.20
2018-05-21T22:29:26.199Z,15.20
2018-05-21T22:31:53.946Z,15.13
2018-05-21T22:34:21.695Z,16.43
2018-05-21T22:36:49.433Z,16.00
2018-05-21T22:39:17.224Z,19.60
2018-05-21T22:41:44.953Z,23.63
2018-05-21T22:44:12.756Z,24.53
2018-05-21T22:46:40.496Z,26.23
2018-05-21T22:49:08.990Z,25.80
2018-05-21T22:51:36.732Z,26.60
2018-05-21T22:54:04.486Z,27.77
2018-05-21T22:56:32.296Z,27.07
2018-05-21T22:59:00.036Z,24.70
2018-05-21T23:01:27.760Z,25.67
2018-05-21T23:03:56.260Z,26.93
2018-05-21T23:06:24.052Z,24.07
2018-05-21T23:08:51.817Z,23.73
2018-05-21T23:11:19.551Z,26.93
2018-05-21T23:13:47.274Z,26.00
2018-05-21T23:16:15.000Z,25.03
2018-05-21T23:18:43.285Z,24.33
2018-05-21T23:21:11.016Z,27.00
2018-05-21T23:23:38.739Z,27.70
2018-05-21T23:26:06.471Z,25.50
2018-05-21T23:28:34.197Z,24.70
2018-05-21T23:31:01.985Z,26.43
2018-05-21T23:33:29.709Z,26.57
2018-05-21T23:35:58.231Z,27.50
2018-05-21T23:38:25.948Z,26.40
2018-05-21T23:40:54.472Z,25.17
2018-05-21T23:43:22.251Z,27.23
2018-05-21T23:45:49.985Z,25.87
2018-05-21T23:48:17.716Z,25.17
2018-05-21T23:50:45.464Z,25.03
2018-05-21T23:53:13.216Z,26.43
2018-05-21T23:55:40.959Z,27.60
2018-05-21T23:58:08.700Z,26.17
